首页
METAR-TAF:

METAR-TAF

机场 :

威尔明顿, 特拉华州, 美国

纬度: 39-40-22N, 经度: 075-36-03W, 海拔: 24米

当前天气观测

该预报发布于42分钟前的07:51 UTC
风速6节,风向东转东北
温度 1°C
湿度 69%
气压 1033 hPa
能見度: 16.1公里
散云层高于4100英尺
多云层高于4800英尺

METAR: KILG 130751Z AUTO 07006KT 10SM SCT041 BKN048 01/M04 A3050 RMK AO2 SLP329 T00061039

时间: 03:33 (08:33 UTC)

预报

该预报发布于3小时和5分钟前的05:28 UTC
预报有效从13日的 06点(UTC)到 14日的 06点(UTC)
风速4节,风向多变
能見度: 10公里
少量云层高于4000英尺
多云层高于25000英尺
从 13日的 0700点(UTC)
风速3节,风向多变
能見度: 10公里
阴天层高于3500英尺
从 13日的 1100点(UTC)
风速5节,风向
能見度: 10公里
阴天层高于2500英尺
从 13日的 1400点(UTC)
风速5节,风向
能見度: 10公里
阴天层高于1500英尺
附近有阵雨
从 13日的 1700点(UTC)
风速5节,风向
能見度: 6.4公里
阴天层高于800英尺
小雨, 轻雾
从 14日的 0000点(UTC)
风速5节,风向东转东北
能見度: 3.2公里
阴天层高于300英尺
雨, 轻雾

TAF: KILG 130528Z 1306/1406 VRB04KT P6SM FEW040 BKN250 FM130700 VRB03KT P6SM OVC035 FM131100 08005KT P6SM OVC025 FM131400 09005KT P6SM VCSH OVC015 FM131700 09005KT 4SM -RA BR OVC008 FM140000 07005KT 2SM RA BR OVC003

超过4000个机场的气象观测和天气预报(METAR&TAF报告)。

可查询的气象台以黄色和红色小点在地图上表示。

将鼠标移到小点上方,可查看气象台名称。

然后点击查看天气观测和预报。

如需切换地图:点击带黑十字的绿色按钮放大地图;点击带横线的绿色按钮缩小地图;或者点击绿色箭头查看邻近地区的地图。


METAR-TAF: